createdAt,value
2022-09-23T00:01:23.512Z,14.66
2022-09-23T00:03:50.948Z,14.61
2022-09-23T00:06:23.019Z,14.63
2022-09-23T00:08:51.843Z,14.64
2022-09-23T00:11:28.378Z,14.66
2022-09-23T00:14:00.500Z,14.58
2022-09-23T00:16:34.648Z,14.57
2022-09-23T00:19:04.097Z,14.53
2022-09-23T00:21:31.430Z,14.57
2022-09-23T00:23:58.709Z,14.54
2022-09-23T00:26:25.915Z,14.58
2022-09-23T00:28:53.248Z,14.63
2022-09-23T00:31:25.938Z,14.66
2022-09-23T00:34:01.757Z,14.64
2022-09-23T00:36:32.192Z,14.61
2022-09-23T00:38:59.966Z,14.54
2022-09-23T00:41:27.680Z,14.46
2022-09-23T00:44:01.155Z,14.47
2022-09-23T00:46:40.423Z,14.50
2022-09-23T00:49:27.593Z,14.51
2022-09-23T00:52:05.626Z,14.46
2022-09-23T00:54:32.998Z,14.46
2022-09-23T00:57:01.370Z,14.47
2022-09-23T00:59:29.271Z,14.43
2022-09-23T01:01:59.216Z,14.43
2022-09-23T01:04:29.045Z,14.50
2022-09-23T01:06:56.485Z,14.47
2022-09-23T01:09:25.152Z,14.43
2022-09-23T01:12:24.286Z,14.41
2022-09-23T01:15:11.183Z,14.36
2022-09-23T01:18:09.285Z,14.37
2022-09-23T01:21:18.534Z,14.37
2022-09-23T01:24:39.666Z,14.41
2022-09-23T01:27:47.278Z,14.39
2022-09-23T01:30:40.899Z,14.41
2022-09-23T01:33:39.855Z,14.35
2022-09-23T01:36:24.792Z,14.35
2022-09-23T01:39:35.604Z,14.35
2022-09-23T01:43:01.404Z,14.39
2022-09-23T01:45:46.021Z,14.29
2022-09-23T01:48:50.568Z,14.30
2022-09-23T01:51:36.040Z,14.35
2022-09-23T01:54:38.896Z,14.33
2022-09-23T01:57:36.377Z,14.26
2022-09-23T02:00:14.321Z,14.33
2022-09-23T02:02:56.292Z,14.33
2022-09-23T02:05:59.465Z,14.37
2022-09-23T02:08:44.546Z,14.43
2022-09-23T02:11:15.547Z,14.40
2022-09-23T02:13:59.055Z,14.45
2022-09-23T02:16:43.991Z,14.44
2022-09-23T02:19:55.541Z,14.50
2022-09-23T02:23:03.117Z,14.47
2022-09-23T02:25:59.965Z,14.45
2022-09-23T02:28:37.442Z,14.47
2022-09-23T02:31:53.532Z,14.45
2022-09-23T02:35:08.015Z,14.46
2022-09-23T02:38:11.281Z,14.44
2022-09-23T02:41:04.650Z,14.46
2022-09-23T02:43:42.623Z,14.45
2022-09-23T02:46:10.793Z,14.46
2022-09-23T02:48:53.537Z,14.39
2022-09-23T02:51:20.963Z,14.34
2022-09-23T02:53:48.678Z,14.40
2022-09-23T02:56:21.758Z,14.38
2022-09-23T02:58:54.084Z,14.38
2022-09-23T03:01:57.174Z,14.35
2022-09-23T03:05:12.670Z,14.39
2022-09-23T03:08:25.647Z,14.39
2022-09-23T03:11:04.291Z,14.40
2022-09-23T03:14:17.750Z,14.37
2022-09-23T03:17:07.256Z,14.39
2022-09-23T03:19:54.076Z,14.39
2022-09-23T03:22:34.175Z,14.41
2022-09-23T03:25:13.638Z,14.39
2022-09-23T03:27:42.848Z,14.33
2022-09-23T03:30:13.110Z,14.29
2022-09-23T03:32:45.811Z,14.22
2022-09-23T03:35:14.606Z,14.17
2022-09-23T03:38:11.192Z,14.15
2022-09-23T03:40:43.578Z,14.10
2022-09-23T03:43:13.849Z,14.10
2022-09-23T03:45:42.590Z,14.02
2022-09-23T03:48:09.983Z,13.96
2022-09-23T03:50:37.513Z,13.88
2022-09-23T03:53:04.790Z,13.75
2022-09-23T03:55:32.219Z,13.68
2022-09-23T03:58:00.210Z,13.68
2022-09-23T04:00:27.686Z,13.65
2022-09-23T04:02:54.825Z,13.67
2022-09-23T04:05:22.054Z,13.58
2022-09-23T04:07:50.819Z,13.46
2022-09-23T04:10:18.265Z,13.41
2022-09-23T04:12:45.498Z,13.36
2022-09-23T04:15:13.115Z,13.34
2022-09-23T04:17:40.842Z,13.31
2022-09-23T04:20:09.023Z,13.32
2022-09-23T04:22:38.603Z,13.36
2022-09-23T04:25:07.210Z,13.39
2022-09-23T04:27:37.792Z,13.42
2022-09-23T04:30:06.982Z,13.41
2022-09-23T04:32:34.170Z,13.44
2022-09-23T04:35:01.488Z,13.50
2022-09-23T04:37:29.394Z,13.52
2022-09-23T04:39:56.558Z,13.53
2022-09-23T04:42:24.050Z,13.52
2022-09-23T04:44:51.371Z,13.51
2022-09-23T04:47:19.272Z,13.46
2022-09-23T04:49:46.502Z,13.47
2022-09-23T04:52:13.797Z,13.41
2022-09-23T04:54:41.706Z,13.37
2022-09-23T04:57:11.061Z,13.40
2022-09-23T04:59:38.283Z,13.39
2022-09-23T05:02:05.807Z,13.38
2022-09-23T05:04:33.198Z,13.36
2022-09-23T05:07:03.287Z,13.37
2022-09-23T05:09:31.098Z,13.35
2022-09-23T05:11:58.449Z,13.31
2022-09-23T05:14:25.648Z,13.30
2022-09-23T05:16:52.857Z,13.25
2022-09-23T05:19:20.658Z,13.28
2022-09-23T05:21:47.986Z,13.29
2022-09-23T05:24:16.670Z,13.31
2022-09-23T05:26:44.041Z,13.35
2022-09-23T05:29:11.381Z,13.39
2022-09-23T05:31:38.800Z,13.40
2022-09-23T05:34:06.851Z,13.43
2022-09-23T05:36:39.013Z,13.45
2022-09-23T05:39:08.575Z,13.52
2022-09-23T05:41:37.046Z,13.54
2022-09-23T05:44:04.773Z,13.57
2022-09-23T05:46:33.120Z,13.63
2022-09-23T05:49:03.237Z,13.71
2022-09-23T05:51:33.203Z,13.77
2022-09-23T05:54:02.780Z,13.84
2022-09-23T05:56:31.870Z,13.92
2022-09-23T05:59:02.387Z,13.95
2022-09-23T06:01:35.318Z,13.97
2022-09-23T06:04:06.739Z,13.98
2022-09-23T06:06:38.773Z,14.05
2022-09-23T06:09:08.382Z,14.12
2022-09-23T06:11:36.362Z,14.13
2022-09-23T06:14:04.658Z,14.12
2022-09-23T06:16:36.610Z,14.15
2022-09-23T06:19:07.589Z,14.21
2022-09-23T06:21:38.547Z,14.29
2022-09-23T06:24:08.937Z,14.33
2022-09-23T06:26:37.906Z,14.36
2022-09-23T06:29:14.631Z,14.39
2022-09-23T06:31:43.286Z,14.42
2022-09-23T06:34:14.172Z,14.46
2022-09-23T06:36:46.088Z,14.53
2022-09-23T06:39:15.317Z,14.56
2022-09-23T06:41:45.457Z,14.59
2022-09-23T06:44:14.951Z,14.66
2022-09-23T06:46:42.981Z,14.72
2022-09-23T06:49:12.498Z,14.72
2022-09-23T06:51:40.248Z,14.82
2022-09-23T06:54:07.950Z,14.91
2022-09-23T06:56:39.136Z,14.99
2022-09-23T06:59:09.851Z,15.05
2022-09-23T07:01:37.185Z,15.10
2022-09-23T07:04:04.796Z,15.14
2022-09-23T07:06:32.199Z,15.31
2022-09-23T07:09:00.883Z,15.38
2022-09-23T07:11:28.138Z,15.33
2022-09-23T07:13:55.347Z,15.35
2022-09-23T07:16:22.569Z,15.44
2022-09-23T07:18:49.779Z,15.49
2022-09-23T07:21:19.139Z,15.53
2022-09-23T07:23:50.333Z,15.50
2022-09-23T07:26:19.704Z,15.54
2022-09-23T07:28:47.396Z,15.58
2022-09-23T07:31:31.187Z,15.57
2022-09-23T07:34:04.624Z,15.69
2022-09-23T07:36:32.870Z,15.70
2022-09-23T07:39:03.146Z,15.83
2022-09-23T07:41:33.107Z,15.82
2022-09-23T07:44:01.317Z,15.93
2022-09-23T07:46:33.974Z,16.04
2022-09-23T07:49:03.126Z,16.18
2022-09-23T07:51:36.578Z,16.20
2022-09-23T07:54:11.025Z,16.16
2022-09-23T07:56:39.406Z,16.21
2022-09-23T07:59:11.825Z,16.26
2022-09-23T08:01:44.943Z,16.30
2022-09-23T08:04:30.994Z,16.28
2022-09-23T08:07:01.414Z,16.21
2022-09-23T08:09:34.499Z,16.26
2022-09-23T08:12:02.135Z,16.32
2022-09-23T08:14:29.449Z,16.41
2022-09-23T08:16:57.502Z,16.59
2022-09-23T08:19:24.961Z,16.67
2022-09-23T08:21:52.487Z,16.74
2022-09-23T08:24:24.089Z,16.59
2022-09-23T08:26:54.306Z,16.57
2022-09-23T08:29:25.344Z,16.67
2022-09-23T08:31:53.884Z,16.89
2022-09-23T08:34:23.766Z,17.14
2022-09-23T08:36:52.322Z,17.02
2022-09-23T08:39:21.157Z,17.17
2022-09-23T08:41:58.499Z,17.40
2022-09-23T08:44:58.285Z,17.46
2022-09-23T08:47:56.473Z,17.36
2022-09-23T08:50:37.118Z,17.54
2022-09-23T08:53:15.321Z,17.69
2022-09-23T08:55:50.876Z,17.73
2022-09-23T08:58:43.852Z,17.70
2022-09-23T09:01:40.565Z,17.71
2022-09-23T09:04:27.887Z,17.64
2022-09-23T09:07:34.796Z,17.78
2022-09-23T09:10:25.083Z,17.75
2022-09-23T09:13:12.109Z,17.99
2022-09-23T09:16:07.350Z,18.09
2022-09-23T09:18:40.728Z,17.93
2022-09-23T09:21:13.452Z,17.88
2022-09-23T09:23:56.468Z,17.79
2022-09-23T09:26:28.650Z,17.74
2022-09-23T09:29:33.736Z,17.89
2022-09-23T09:32:00.434Z,17.90
2022-09-23T09:34:43.121Z,18.12
2022-09-23T09:37:43.057Z,17.89
2022-09-23T09:40:20.361Z,18.15
2022-09-23T09:42:50.294Z,18.13
2022-09-23T09:45:38.557Z,17.94
2022-09-23T09:48:17.625Z,18.31
2022-09-23T09:50:56.011Z,18.57
2022-09-23T09:53:35.627Z,18.67
2022-09-23T09:56:07.420Z,18.78
2022-09-23T09:58:52.503Z,18.51
2022-09-23T10:01:34.244Z,18.69
2022-09-23T10:04:22.791Z,18.76
2022-09-23T10:07:15.747Z,18.81
2022-09-23T10:09:51.133Z,18.83
2022-09-23T10:12:24.991Z,18.74
2022-09-23T10:14:57.373Z,18.54
2022-09-23T10:17:33.866Z,18.41
2022-09-23T10:20:09.068Z,19.21
2022-09-23T10:22:42.489Z,19.40
2022-09-23T10:25:30.078Z,19.55
2022-09-23T10:27:57.362Z,19.67
2022-09-23T10:30:28.306Z,19.94
2022-09-23T10:32:56.902Z,19.97
2022-09-23T10:35:26.573Z,19.99
2022-09-23T10:38:00.452Z,19.53
2022-09-23T10:41:00.438Z,19.82
2022-09-23T10:44:26.526Z,20.15
2022-09-23T10:47:41.160Z,20.29
2022-09-23T10:50:40.145Z,19.45
2022-09-23T10:53:26.032Z,20.12
2022-09-23T10:56:11.091Z,20.24
2022-09-23T10:59:16.250Z,20.61
2022-09-23T11:02:31.212Z,20.77
2022-09-23T11:05:40.455Z,20.29
2022-09-23T11:08:34.189Z,20.24
2022-09-23T11:11:55.281Z,20.01
2022-09-23T11:15:19.071Z,19.83
2022-09-23T11:18:06.719Z,19.86
2022-09-23T11:20:56.502Z,19.67
2022-09-23T11:23:54.291Z,19.75
2022-09-23T11:27:05.139Z,19.79
2022-09-23T11:29:58.287Z,19.96
2022-09-23T11:33:05.676Z,19.96
2022-09-23T11:35:57.262Z,20.45
2022-09-23T11:38:36.527Z,20.70
2022-09-23T11:41:30.911Z,21.05
2022-09-23T11:44:14.984Z,21.31
2022-09-23T11:46:51.554Z,21.32
2022-09-23T11:49:35.312Z,21.55
2022-09-23T11:52:26.305Z,21.40
2022-09-23T11:55:14.836Z,21.44
2022-09-23T11:57:54.501Z,20.93
2022-09-23T12:00:28.400Z,19.88
2022-09-23T12:03:56.018Z,20.69
2022-09-23T12:06:55.261Z,21.73
2022-09-23T12:09:57.136Z,21.92
2022-09-23T12:12:47.937Z,22.21
2022-09-23T12:16:04.064Z,21.74
2022-09-23T12:19:13.254Z,21.80
2022-09-23T12:22:52.849Z,21.28
2022-09-23T12:25:51.054Z,21.45
2022-09-23T12:28:29.583Z,20.36
2022-09-23T12:31:02.411Z,20.86
2022-09-23T12:33:33.529Z,21.57
2022-09-23T12:36:12.165Z,21.76
2022-09-23T12:38:55.070Z,21.77
2022-09-23T12:41:39.585Z,21.85
2022-09-23T12:44:14.354Z,21.84
2022-09-23T12:46:46.243Z,21.75
2022-09-23T12:49:37.537Z,21.25
2022-09-23T12:52:31.422Z,20.22
2022-09-23T12:55:24.581Z,20.31
2022-09-23T12:57:51.926Z,20.64
2022-09-23T13:00:30.956Z,20.71
2022-09-23T13:03:20.354Z,21.47
2022-09-23T13:06:19.853Z,21.91
2022-09-23T13:08:49.517Z,22.00
2022-09-23T13:11:29.035Z,22.31
2022-09-23T13:14:01.834Z,22.69
2022-09-23T13:16:39.796Z,22.51
2022-09-23T13:19:26.326Z,22.39
2022-09-23T13:22:09.387Z,22.78
2022-09-23T13:24:45.860Z,22.99
2022-09-23T13:27:31.204Z,23.19
2022-09-23T13:30:25.957Z,23.47
2022-09-23T13:33:14.382Z,23.43
2022-09-23T13:35:56.685Z,23.42
2022-09-23T13:38:29.600Z,23.51
2022-09-23T13:41:13.848Z,22.55
2022-09-23T13:44:00.483Z,23.44
2022-09-23T13:46:34.144Z,23.55
2022-09-23T13:49:02.734Z,23.66
2022-09-23T13:51:37.074Z,22.94
2022-09-23T13:54:05.421Z,23.96
2022-09-23T13:56:35.283Z,23.34
2022-09-23T13:59:27.690Z,23.51
2022-09-23T14:02:16.701Z,22.27
2022-09-23T14:04:44.668Z,21.77
2022-09-23T14:07:15.881Z,21.93
2022-09-23T14:09:51.473Z,21.65
2022-09-23T14:12:22.167Z,22.03
2022-09-23T14:14:52.483Z,22.05
2022-09-23T14:17:25.770Z,21.82
2022-09-23T14:19:53.065Z,22.81
2022-09-23T14:22:30.418Z,23.38
2022-09-23T14:24:58.487Z,23.13
2022-09-23T14:27:33.007Z,23.63
2022-09-23T14:30:03.696Z,24.66
2022-09-23T14:32:32.657Z,24.67
2022-09-23T14:34:59.879Z,24.08
2022-09-23T14:37:53.519Z,22.39
2022-09-23T14:40:50.737Z,23.55
2022-09-23T14:43:26.572Z,25.00
2022-09-23T14:45:59.073Z,25.36
2022-09-23T14:48:34.245Z,24.61
2022-09-23T14:51:07.538Z,25.12
2022-09-23T14:53:46.332Z,24.84
2022-09-23T14:56:21.109Z,23.87
2022-09-23T14:58:52.908Z,24.42
2022-09-23T15:01:38.856Z,25.27
2022-09-23T15:04:24.628Z,23.30
2022-09-23T15:07:07.750Z,24.06
2022-09-23T15:09:41.075Z,26.48
2022-09-23T15:12:21.600Z,27.58
2022-09-23T15:14:56.583Z,25.98
2022-09-23T15:17:23.607Z,25.05
2022-09-23T15:20:01.295Z,25.54
2022-09-23T15:22:28.879Z,26.25
2022-09-23T15:25:35.992Z,23.24
2022-09-23T15:28:12.255Z,22.73
2022-09-23T15:30:40.558Z,23.13
2022-09-23T15:33:11.294Z,23.17
2022-09-23T15:35:46.445Z,22.73
2022-09-23T15:38:13.785Z,22.59
2022-09-23T15:40:41.306Z,22.29
2022-09-23T15:43:21.873Z,21.97
2022-09-23T15:46:06.750Z,21.45
2022-09-23T15:49:01.157Z,21.47
2022-09-23T15:51:28.822Z,21.26
2022-09-23T15:53:56.476Z,21.38
2022-09-23T15:56:27.002Z,21.39
2022-09-23T15:58:54.249Z,21.42
2022-09-23T16:01:32.095Z,21.55
2022-09-23T16:04:04.262Z,21.60
2022-09-23T16:06:32.345Z,21.62
2022-09-23T16:08:59.603Z,21.40
2022-09-23T16:11:31.959Z,21.14
2022-09-23T16:14:03.150Z,20.97
2022-09-23T16:16:31.439Z,20.76
2022-09-23T16:18:58.756Z,20.70
2022-09-23T16:21:28.450Z,20.70
2022-09-23T16:23:57.223Z,20.65
2022-09-23T16:26:29.610Z,20.63
2022-09-23T16:28:59.436Z,20.55
2022-09-23T16:31:31.219Z,20.38
2022-09-23T16:34:02.077Z,20.29
2022-09-23T16:36:43.104Z,20.17
2022-09-23T16:39:13.607Z,20.10
2022-09-23T16:41:42.776Z,19.96
2022-09-23T16:44:12.303Z,19.85
2022-09-23T16:46:42.707Z,19.67
2022-09-23T16:49:13.662Z,19.58
2022-09-23T16:51:41.311Z,19.53
2022-09-23T16:54:13.128Z,19.49
2022-09-23T16:56:44.439Z,19.43
2022-09-23T16:59:14.920Z,19.34
2022-09-23T17:02:06.010Z,19.26
2022-09-23T17:04:33.250Z,19.10
2022-09-23T17:07:00.554Z,18.93
2022-09-23T17:09:30.135Z,18.83
2022-09-23T17:12:20.222Z,18.78
2022-09-23T17:14:47.574Z,18.70
2022-09-23T17:17:15.459Z,18.62
2022-09-23T17:19:42.647Z,18.59
2022-09-23T17:22:09.990Z,18.54
2022-09-23T17:24:37.233Z,18.52
2022-09-23T17:27:04.491Z,18.41
2022-09-23T17:29:31.884Z,18.31
2022-09-23T17:31:59.273Z,18.27
2022-09-23T17:34:28.757Z,18.17
2022-09-23T17:36:55.980Z,18.12
2022-09-23T17:39:23.250Z,18.05
2022-09-23T17:41:50.479Z,18.01
2022-09-23T17:44:17.827Z,17.95
2022-09-23T17:46:44.987Z,17.90
2022-09-23T17:49:12.289Z,17.79
2022-09-23T17:51:39.617Z,17.76
2022-09-23T17:54:06.962Z,17.67
2022-09-23T17:56:34.304Z,17.67
2022-09-23T17:59:02.683Z,17.65
2022-09-23T18:01:30.477Z,17.68
2022-09-23T18:04:05.576Z,17.73
2022-09-23T18:06:36.708Z,17.74
2022-09-23T18:09:06.961Z,17.72
2022-09-23T18:11:42.190Z,17.72
2022-09-23T18:14:16.335Z,17.71
2022-09-23T18:16:47.879Z,17.60
2022-09-23T18:19:19.454Z,17.53
2022-09-23T18:21:51.940Z,17.43
2022-09-23T18:24:35.259Z,17.42
2022-09-23T18:27:02.648Z,17.45
2022-09-23T18:29:30.299Z,17.49
2022-09-23T18:31:59.114Z,17.44
2022-09-23T18:34:26.682Z,17.42
2022-09-23T18:36:56.002Z,17.43
2022-09-23T18:39:23.359Z,17.43
2022-09-23T18:41:51.033Z,17.43
2022-09-23T18:44:19.876Z,17.45
2022-09-23T18:46:47.052Z,17.47
2022-09-23T18:49:32.928Z,17.49
2022-09-23T18:52:00.379Z,17.53
2022-09-23T18:54:29.167Z,17.52
2022-09-23T18:56:56.722Z,17.51
2022-09-23T18:59:28.964Z,17.50
2022-09-23T19:01:57.321Z,17.51
2022-09-23T19:04:27.255Z,17.54
2022-09-23T19:06:56.464Z,17.59
2022-09-23T19:09:24.159Z,17.62
2022-09-23T19:11:53.282Z,17.63
2022-09-23T19:14:21.308Z,17.62
2022-09-23T19:16:51.459Z,17.61
2022-09-23T19:19:18.718Z,17.59
2022-09-23T19:21:45.985Z,17.61
2022-09-23T19:24:16.118Z,17.59
2022-09-23T19:26:44.244Z,17.56
2022-09-23T19:29:19.566Z,17.56
2022-09-23T19:31:47.671Z,17.54
2022-09-23T19:34:19.660Z,17.54
2022-09-23T19:36:48.215Z,17.50
2022-09-23T19:39:26.198Z,17.48
2022-09-23T19:41:55.776Z,17.43
2022-09-23T19:44:25.052Z,17.41
2022-09-23T19:46:56.491Z,17.42
2022-09-23T19:49:25.724Z,17.38
2022-09-23T19:51:55.796Z,17.34
2022-09-23T19:54:26.563Z,17.33
2022-09-23T19:56:54.180Z,17.32
2022-09-23T19:59:21.546Z,17.30
2022-09-23T20:01:49.347Z,17.33
2022-09-23T20:04:17.036Z,17.36
2022-09-23T20:06:45.803Z,17.35
2022-09-23T20:09:13.113Z,17.35
2022-09-23T20:11:42.875Z,17.38
2022-09-23T20:14:12.879Z,17.42
2022-09-23T20:16:40.445Z,17.40
2022-09-23T20:19:07.815Z,17.39
2022-09-23T20:21:35.468Z,17.37
2022-09-23T20:24:05.650Z,17.35
2022-09-23T20:26:51.950Z,17.34
2022-09-23T20:29:19.184Z,17.29
2022-09-23T20:31:46.520Z,17.30
2022-09-23T20:34:13.746Z,17.29
2022-09-23T20:36:41.685Z,17.26
2022-09-23T20:39:10.363Z,17.27
2022-09-23T20:41:39.249Z,17.24
2022-09-23T20:44:13.944Z,17.24
2022-09-23T20:46:48.642Z,17.25
2022-09-23T20:49:17.747Z,17.19
2022-09-23T20:51:45.261Z,17.15
2022-09-23T20:54:12.448Z,17.12
2022-09-23T20:56:40.037Z,17.09
2022-09-23T20:59:07.319Z,17.10
2022-09-23T21:01:36.950Z,17.04
2022-09-23T21:04:05.704Z,17.07
2022-09-23T21:06:38.819Z,17.07
2022-09-23T21:09:07.204Z,17.06
2022-09-23T21:11:34.862Z,17.06
2022-09-23T21:14:02.524Z,17.06
2022-09-23T21:16:29.989Z,17.04
2022-09-23T21:18:58.831Z,17.01
2022-09-23T21:21:26.500Z,17.01
2022-09-23T21:23:53.864Z,17.01
2022-09-23T21:26:25.337Z,17.05
2022-09-23T21:29:00.818Z,17.08
2022-09-23T21:31:38.583Z,17.04
2022-09-23T21:34:11.136Z,17.03
2022-09-23T21:36:42.801Z,17.04
2022-09-23T21:39:11.843Z,17.01
2022-09-23T21:41:39.983Z,16.93
2022-09-23T21:44:08.403Z,16.89
2022-09-23T21:46:36.888Z,16.82
2022-09-23T21:49:04.989Z,16.82
2022-09-23T21:51:42.936Z,16.78
2022-09-23T21:54:16.848Z,16.75
2022-09-23T21:56:44.930Z,16.74
2022-09-23T21:59:12.878Z,16.76
2022-09-23T22:01:44.851Z,16.78
2022-09-23T22:04:18.933Z,16.77
2022-09-23T22:06:48.754Z,16.76
2022-09-23T22:09:20.339Z,16.77
2022-09-23T22:12:09.496Z,16.78
2022-09-23T22:14:38.796Z,16.78
2022-09-23T22:17:10.327Z,16.74
2022-09-23T22:19:45.620Z,16.69
2022-09-23T22:22:17.920Z,16.68
2022-09-23T22:24:48.588Z,16.65
2022-09-23T22:27:19.974Z,16.64
2022-09-23T22:30:06.450Z,16.65
2022-09-23T22:32:46.073Z,16.66
2022-09-23T22:35:17.786Z,16.61
2022-09-23T22:37:46.148Z,16.53
2022-09-23T22:40:15.661Z,16.51
2022-09-23T22:42:43.939Z,16.49
2022-09-23T22:45:12.857Z,16.52
2022-09-23T22:47:44.015Z,16.51
2022-09-23T22:50:13.883Z,16.48
2022-09-23T22:52:41.231Z,16.47
2022-09-23T22:55:09.283Z,16.46
2022-09-23T22:57:36.874Z,16.44
2022-09-23T23:00:09.468Z,16.47
2022-09-23T23:02:36.746Z,16.45
2022-09-23T23:05:04.572Z,16.45
2022-09-23T23:07:32.086Z,16.47
2022-09-23T23:09:59.391Z,16.49
2022-09-23T23:12:26.653Z,16.49
2022-09-23T23:14:54.768Z,16.48
2022-09-23T23:17:22.017Z,16.44
2022-09-23T23:19:50.511Z,16.41
2022-09-23T23:22:17.883Z,16.45
2022-09-23T23:24:45.156Z,16.44
2022-09-23T23:27:12.428Z,16.37
2022-09-23T23:29:39.713Z,16.32
2022-09-23T23:32:07.643Z,16.29
2022-09-23T23:34:34.825Z,16.28
2022-09-23T23:37:02.060Z,16.27
2022-09-23T23:39:29.389Z,16.29
2022-09-23T23:41:58.346Z,16.28
2022-09-23T23:44:27.156Z,16.25
2022-09-23T23:46:55.235Z,16.25
2022-09-23T23:49:22.886Z,16.23
2022-09-23T23:51:50.179Z,16.20
2022-09-23T23:54:17.549Z,16.19
2022-09-23T23:56:45.267Z,16.19
2022-09-23T23:59:13.495Z,16.22
